North Battleford Airport

CYQW | YQW

North Battleford , Saskatchewan , Canada

Saturday, June 6th, 2020 | 23:04

Weather

CYQW 070437Z AUTO 09019G27KT 4SM -RA BR BKN022 OVC030 11/10 A2966 RMK SLP059 DENSITY ALT 2000FT

Charts

No Charts Available

Gates

No Gates Available

Runways

2 Available

Active ATC

Events -Coming Soon-

1 Events Coming Up Soon

Next event:
CYQW Flyout